Time;durP1;ratioP1;P1;durP2;ratioP2;P2;SDS_P1;SDS_P2;PMS_P1;PMS_P2;Temp;Humidity;BMP_temperature;BMP_pressure;BME280_temperature;BME280_humidity;BME280_pressure;Samples;Min_cycle;Max_cycle;Signal;HPM_P1;HPM_P2
2023/01/13 00:01:51;;;;;;;8.55;6.60;;;6.00;54.00;;;;;;4965086;28;20092;-79
2023/01/13 00:04:17;;;;;;;8.23;5.75;;;6.00;54.00;;;;;;4982042;28;20034;-79
2023/01/13 00:06:43;;;;;;;10.13;6.35;;;6.00;54.00;;;;;;4978829;28;20090;-79
2023/01/13 00:09:09;;;;;;;7.97;5.90;;;6.00;54.00;;;;;;4978427;28;20744;-79
2023/01/13 00:11:35;;;;;;;7.97;5.82;;;6.00;54.10;;;;;;4983979;28;20515;-79
2023/01/13 00:14:01;;;;;;;8.90;5.63;;;6.00;54.10;;;;;;4983169;28;20065;-79
2023/01/13 00:16:27;;;;;;;9.15;5.35;;;6.00;54.00;;;;;;4984605;28;20405;-80
2023/01/13 00:18:53;;;;;;;8.05;5.32;;;6.00;54.00;;;;;;4964254;28;20046;-80
2023/01/13 00:21:21;;;;;;;7.95;5.57;;;6.00;54.10;;;;;;4971716;28;20121;-80
2023/01/13 00:23:48;;;;;;;6.70;5.15;;;6.00;54.10;;;;;;4982053;28;20031;-81
2023/01/13 00:26:26;;;;;;;8.20;5.72;;;6.00;54.10;;;;;;4983528;28;20533;-80
2023/01/13 00:28:58;;;;;;;9.63;5.57;;;6.00;54.10;;;;;;4970499;28;20497;-80
2023/01/13 00:31:24;;;;;;;5.47;4.93;;;6.10;54.10;;;;;;4979036;28;20074;-79
2023/01/13 00:33:50;;;;;;;7.15;5.35;;;6.10;54.00;;;;;;4954191;28;20514;-78
2023/01/13 00:36:18;;;;;;;8.60;5.40;;;6.10;54.00;;;;;;4971126;28;20045;-78
2023/01/13 00:38:44;;;;;;;7.63;5.70;;;6.00;53.90;;;;;;4981321;28;20133;-78
2023/01/13 00:41:13;;;;;;;7.43;5.35;;;6.10;53.90;;;;;;4970484;28;20104;-79
2023/01/13 00:43:40;;;;;;;7.22;5.53;;;6.10;53.90;;;;;;4981144;28;20041;-80
2023/01/13 00:46:09;;;;;;;7.10;5.32;;;6.10;53.80;;;;;;4970441;28;20038;-79
2023/01/13 00:48:36;;;;;;;7.97;5.63;;;6.10;53.80;;;;;;4983085;28;20042;-80
2023/01/13 00:51:09;;;;;;;7.90;6.00;;;6.10;53.80;;;;;;4980534;28;20045;-79
2023/01/13 00:53:38;;;;;;;6.40;5.25;;;6.10;53.80;;;;;;4952429;28;20397;-80
2023/01/13 00:56:06;;;;;;;8.40;5.78;;;6.10;53.80;;;;;;4983232;28;20029;-79
2023/01/13 00:58:33;;;;;;;8.30;5.90;;;6.10;53.80;;;;;;4977674;28;20042;-78
2023/01/13 01:01:20;;;;;;;7.65;5.82;;;6.10;53.80;;;;;;4939267;28;20049;-78
2023/01/13 01:03:51;;;;;;;8.10;6.07;;;6.10;53.80;;;;;;4980554;28;20129;-76
2023/01/13 01:06:20;;;;;;;7.10;5.47;;;6.10;53.80;;;;;;4980196;28;20141;-77
2023/01/13 01:08:46;;;;;;;7.35;5.70;;;6.10;53.80;;;;;;4953569;28;20038;-77
2023/01/13 01:11:17;;;;;;;7.82;5.60;;;6.10;53.80;;;;;;4969741;28;20035;-76
2023/01/13 01:13:44;;;;;;;10.45;6.22;;;6.10;53.80;;;;;;4980930;28;20038;-77
2023/01/13 01:16:13;;;;;;;6.90;6.20;;;6.10;53.80;;;;;;4970888;28;20130;-77
2023/01/13 01:18:41;;;;;;;9.10;5.78;;;6.10;53.80;;;;;;4980321;28;20097;-77
2023/01/13 01:21:07;;;;;;;8.30;5.82;;;6.10;53.70;;;;;;4984142;28;20077;-78
2023/01/13 01:23:34;;;;;;;7.13;5.75;;;6.10;53.70;;;;;;4981307;28;20069;-77
2023/01/13 01:26:10;;;;;;;8.43;5.90;;;6.10;53.70;;;;;;4964224;28;20589;-78
2023/01/13 01:28:36;;;;;;;6.72;5.53;;;6.10;53.80;;;;;;4979062;28;20168;-78
2023/01/13 01:31:08;;;;;;;8.18;5.95;;;6.10;53.70;;;;;;4981785;28;20454;-78
2023/01/13 01:33:34;;;;;;;7.45;5.72;;;6.10;53.70;;;;;;4970598;28;20046;-77
2023/01/13 01:36:01;;;;;;;7.65;5.82;;;6.10;53.70;;;;;;4978322;28;20429;-77
2023/01/13 01:38:27;;;;;;;7.28;6.32;;;6.20;53.80;;;;;;4982359;28;20038;-78
2023/01/13 01:40:52;;;;;;;6.60;5.32;;;6.20;53.70;;;;;;4979769;28;20405;-78
2023/01/13 01:46:06;;;;;;;8.27;5.60;;;6.20;53.70;;;;;;4976764;28;20030;-77
2023/01/13 01:48:37;;;;;;;6.03;5.43;;;6.20;53.60;;;;;;4980466;28;20200;-77
2023/01/13 01:51:06;;;;;;;8.25;5.95;;;6.20;53.70;;;;;;4980330;28;20035;-77
2023/01/13 01:53:32;;;;;;;8.60;5.70;;;6.20;53.70;;;;;;4983198;28;20169;-77
2023/01/13 01:55:59;;;;;;;8.77;5.32;;;6.20;53.70;;;;;;4977862;28;20039;-78
2023/01/13 01:58:31;;;;;;;8.07;5.70;;;6.30;53.80;;;;;;4980931;28;20046;-78
2023/01/13 02:00:58;;;;;;;7.20;5.70;;;6.20;53.70;;;;;;4963864;28;20418;-78
2023/01/13 02:03:24;;;;;;;9.27;6.07;;;6.20;53.60;;;;;;4977996;28;20046;-78
2023/01/13 02:05:51;;;;;;;9.32;6.18;;;6.30;53.60;;;;;;4959661;28;20049;-78
2023/01/13 02:08:17;;;;;;;7.63;5.90;;;6.20;53.60;;;;;;4969735;28;20030;-78
2023/01/13 02:10:47;;;;;;;9.80;5.72;;;6.20;53.50;;;;;;4969651;28;20042;-77
2023/01/13 02:13:13;;;;;;;7.25;5.72;;;6.20;53.50;;;;;;4980635;28;20038;-78
2023/01/13 02:15:48;;;;;;;9.20;5.82;;;6.30;53.50;;;;;;4964768;28;20406;-79
2023/01/13 02:18:29;;;;;;;7.20;5.78;;;6.20;53.40;;;;;;4952115;28;20379;-78
2023/01/13 02:21:27;;;;;;;6.72;5.47;;;6.20;53.50;;;;;;4980395;28;20046;-78
2023/01/13 02:27:45;;;;;;;6.55;5.40;;;6.20;53.70;;;;;;4977174;28;20046;-78
2023/01/13 02:33:51;;;;;;;8.10;5.65;;;6.20;53.70;;;;;;4967219;28;20414;-78
2023/01/13 02:36:42;;;;;;;7.72;5.18;;;6.20;53.70;;;;;;4976488;28;20042;-77
2023/01/13 02:39:22;;;;;;;7.82;5.60;;;6.30;53.70;;;;;;4961252;28;20962;-78
2023/01/13 02:45:08;;;;;;;9.40;5.25;;;6.30;53.80;;;;;;4964267;28;20593;-77
2023/01/13 02:47:38;;;;;;;7.13;5.13;;;6.30;53.80;;;;;;4979666;28;20057;-77
2023/01/13 02:50:11;;;;;;;8.70;5.40;;;6.30;53.60;;;;;;4978521;28;20134;-78
2023/01/13 02:52:42;;;;;;;9.15;5.65;;;6.30;53.50;;;;;;4979914;28;20379;-78
2023/01/13 02:55:35;;;;;;;8.35;5.38;;;6.30;53.50;;;;;;4980634;28;20081;-77
2023/01/13 02:58:05;;;;;;;8.30;5.40;;;6.30;53.50;;;;;;4979436;28;20039;-77
2023/01/13 03:00:32;;;;;;;7.35;5.53;;;6.30;53.50;;;;;;4975973;28;20038;-77
2023/01/13 03:02:59;;;;;;;6.80;5.18;;;6.30;53.60;;;;;;4969078;28;20034;-78
2023/01/13 03:05:26;;;;;;;6.93;5.38;;;6.30;53.70;;;;;;4979660;28;20462;-78
2023/01/13 03:08:48;;;;;;;6.20;5.15;;;6.30;53.60;;;;;;4978393;28;20035;-78
2023/01/13 03:11:18;;;;;;;8.10;5.57;;;6.40;53.60;;;;;;4890187;29;20413;-78
2023/01/13 03:13:55;;;;;;;7.85;5.55;;;6.30;53.40;;;;;;4900639;29;20043;-78
2023/01/13 03:16:42;;;;;;;6.10;5.10;;;6.30;53.40;;;;;;4901018;29;20044;-80
2023/01/13 03:19:32;;;;;;;6.60;5.07;;;6.40;53.40;;;;;;4891016;29;20069;-80
2023/01/13 03:22:54;;;;;;;6.90;5.05;;;6.30;53.40;;;;;;4900950;29;20036;-79
2023/01/13 03:25:31;;;;;;;6.65;5.18;;;6.30;53.40;;;;;;4885048;29;20553;-86
2023/01/13 03:28:11;;;;;;;7.93;5.55;;;6.30;53.40;;;;;;4882187;29;20500;-83
2023/01/13 03:31:02;;;;;;;8.00;4.55;;;6.30;53.30;;;;;;4884862;29;20037;-81
2023/01/13 03:33:44;;;;;;;7.85;4.93;;;6.30;53.20;;;;;;4878897;29;20136;-80
2023/01/13 03:36:13;;;;;;;5.80;4.38;;;6.30;53.20;;;;;;4890483;29;20040;-80
2023/01/13 03:38:47;;;;;;;6.43;4.75;;;6.30;53.10;;;;;;4876049;29;20201;-82
2023/01/13 03:41:20;;;;;;;6.50;4.70;;;6.40;53.10;;;;;;4902866;28;20047;-80
2023/01/13 03:47:01;;;;;;;5.82;4.68;;;6.30;53.10;;;;;;4962700;28;20047;-81
2023/01/13 03:49:37;;;;;;;5.30;4.68;;;6.40;53.20;;;;;;4962904;28;20708;-82
2023/01/13 03:52:07;;;;;;;9.48;4.80;;;6.40;53.10;;;;;;4959701;28;20043;-82
2023/01/13 03:54:50;;;;;;;5.00;3.83;;;6.40;53.10;;;;;;4933365;28;20046;-83
2023/01/13 03:57:22;;;;;;;6.57;4.50;;;6.40;53.10;;;;;;4960910;28;20047;-81
2023/01/13 03:59:53;;;;;;;6.57;4.35;;;6.40;53.10;;;;;;4980728;28;20038;-83
2023/01/13 04:02:48;;;;;;;4.80;4.00;;;6.40;53.10;;;;;;4972506;28;20038;-82
2023/01/13 04:05:15;;;;;;;4.80;4.30;;;6.40;53.10;;;;;;4956108;28;20035;-81
2023/01/13 04:08:03;;;;;;;6.90;5.00;;;6.40;53.00;;;;;;4971801;28;20525;-80
2023/01/13 04:10:37;;;;;;;7.00;4.10;;;6.40;53.00;;;;;;4970925;28;20046;-78
2023/01/13 04:13:09;;;;;;;4.68;3.47;;;6.50;54.10;;;;;;4983646;28;20053;-79
2023/01/13 04:15:44;;;;;;;4.15;3.38;;;6.50;56.30;;;;;;4985091;28;20038;-80
2023/01/13 04:18:29;;;;;;;5.05;3.90;;;6.50;57.10;;;;;;4982173;28;20141;-77
2023/01/13 04:20:58;;;;;;;4.10;3.70;;;6.50;56.70;;;;;;4983467;28;20477;-78
2023/01/13 04:23:24;;;;;;;4.07;3.67;;;6.60;56.00;;;;;;4981414;28;20041;-77
2023/01/13 04:25:50;;;;;;;4.88;3.65;;;6.60;55.40;;;;;;4958606;28;20157;-77
2023/01/13 04:28:17;;;;;;;4.80;3.83;;;6.60;55.10;;;;;;4970615;28;20051;-85
2023/01/13 04:30:44;;;;;;;4.78;3.58;;;6.60;54.80;;;;;;4981388;28;20031;-78
2023/01/13 04:33:11;;;;;;;4.00;3.45;;;6.50;54.50;;;;;;4978598;28;20034;-77
2023/01/13 04:35:37;;;;;;;3.83;3.10;;;6.60;54.40;;;;;;4980911;28;20537;-83
2023/01/13 04:38:06;;;;;;;4.80;3.55;;;6.50;54.10;;;;;;4977407;28;20158;-74
2023/01/13 04:40:32;;;;;;;4.57;3.92;;;6.50;54.10;;;;;;4980707;28;20084;-75
2023/01/13 04:42:58;;;;;;;4.22;3.30;;;6.60;54.00;;;;;;4982126;28;20421;-75
2023/01/13 04:45:24;;;;;;;4.50;3.45;;;6.50;53.80;;;;;;4984394;28;20041;-75
2023/01/13 04:47:50;;;;;;;4.05;3.60;;;6.50;53.60;;;;;;4992878;28;20030;-74
2023/01/13 04:50:21;;;;;;;4.35;3.60;;;6.50;53.60;;;;;;4980635;28;20047;-73
2023/01/13 04:52:49;;;;;;;5.78;3.67;;;6.50;53.50;;;;;;4993266;28;20520;-74
2023/01/13 04:55:16;;;;;;;5.80;4.13;;;6.50;53.40;;;;;;4984438;28;20052;-74
2023/01/13 04:57:42;;;;;;;4.38;3.60;;;6.50;53.30;;;;;;4981678;28;20053;-73
2023/01/13 05:00:10;;;;;;;4.47;3.80;;;6.50;53.10;;;;;;4982731;28;20034;-74
2023/01/13 05:02:36;;;;;;;4.03;3.63;;;6.50;53.00;;;;;;4981267;28;20547;-75
2023/01/13 05:05:03;;;;;;;4.88;3.67;;;6.50;53.00;;;;;;4980671;28;20035;-75
2023/01/13 05:07:29;;;;;;;3.97;3.28;;;6.50;52.90;;;;;;4978948;28;20034;-75
2023/01/13 05:09:55;;;;;;;4.13;3.65;;;6.50;53.10;;;;;;4980998;28;20148;-77
2023/01/13 05:17:50;;;;;;;5.88;3.67;;;6.60;52.90;;;;;;4979290;28;20050;-75
2023/01/13 05:20:17;;;;;;;5.32;3.80;;;6.50;52.70;;;;;;4979319;28;20394;-75
2023/01/13 05:25:27;;;;;;;5.28;3.53;;;6.50;52.50;;;;;;4976634;28;20035;-76
2023/01/13 05:27:58;;;;;;;4.18;3.72;;;6.50;52.50;;;;;;4978777;28;20564;-76
2023/01/13 05:30:30;;;;;;;5.13;3.55;;;6.50;52.40;;;;;;4980068;28;20030;-75
2023/01/13 05:32:57;;;;;;;4.18;3.70;;;6.50;52.30;;;;;;4963117;28;20394;-75
2023/01/13 05:35:23;;;;;;;4.50;3.83;;;6.50;52.30;;;;;;4978617;28;20047;-75
2023/01/13 05:37:49;;;;;;;3.63;3.33;;;6.50;52.30;;;;;;4981457;28;20034;-74
2023/01/13 05:43:19;;;;;;;4.10;3.70;;;6.50;52.10;;;;;;4979162;28;20031;-75
2023/01/13 05:46:00;;;;;;;4.18;3.55;;;6.50;52.00;;;;;;4978774;28;20038;-75
2023/01/13 05:48:29;;;;;;;5.22;3.70;;;6.50;52.00;;;;;;4979630;28;20097;-75
2023/01/13 05:50:56;;;;;;;5.35;3.97;;;6.50;52.00;;;;;;4978698;28;20045;-77
2023/01/13 05:53:23;;;;;;;5.13;3.85;;;6.50;52.00;;;;;;4970432;28;20054;-74
2023/01/13 05:55:49;;;;;;;4.25;3.35;;;6.50;52.10;;;;;;4975844;28;20529;-74
2023/01/13 05:58:17;;;;;;;4.68;3.28;;;6.60;59.40;;;;;;4981637;28;20232;-73
2023/01/13 06:00:44;;;;;;;4.72;3.28;;;6.60;65.70;;;;;;4980274;28;20035;-74
2023/01/13 06:03:10;;;;;;;4.13;3.17;;;6.70;68.60;;;;;;4978910;28;20118;-73
2023/01/13 06:05:38;;;;;;;3.50;3.15;;;6.90;69.80;;;;;;4979593;28;20137;-77
2023/01/13 06:08:05;;;;;;;7.63;3.45;;;7.00;67.40;;;;;;4980613;28;20038;-78
2023/01/13 06:10:31;;;;;;;5.35;3.63;;;7.20;65.90;;;;;;4965923;28;20037;-77
2023/01/13 06:12:57;;;;;;;5.25;3.42;;;7.30;64.30;;;;;;4979814;28;20090;-77
2023/01/13 06:15:24;;;;;;;5.70;3.75;;;7.40;63.00;;;;;;4962991;28;20034;-77
2023/01/13 06:17:50;;;;;;;4.32;3.20;;;7.40;61.80;;;;;;4978701;28;20121;-77
2023/01/13 06:20:17;;;;;;;4.45;3.60;;;7.40;60.70;;;;;;4981415;28;20145;-77
2023/01/13 06:22:47;;;;;;;5.57;4.00;;;7.40;60.00;;;;;;4965623;28;20038;-78
2023/01/13 06:25:38;;;;;;;4.70;3.67;;;7.40;59.50;;;;;;4950948;28;20081;-78
2023/01/13 06:28:04;;;;;;;6.88;4.13;;;7.40;59.10;;;;;;4976203;28;20417;-78
2023/01/13 06:30:41;;;;;;;4.00;3.38;;;7.40;58.70;;;;;;4973624;28;20042;-77
2023/01/13 06:33:14;;;;;;;4.80;3.88;;;7.40;58.50;;;;;;4966309;28;20133;-77
2023/01/13 06:35:45;;;;;;;6.45;3.35;;;7.40;58.30;;;;;;4958785;28;20722;-77
2023/01/13 06:38:14;;;;;;;5.07;3.70;;;7.40;58.10;;;;;;4974598;28;20401;-77
2023/01/13 06:40:42;;;;;;;4.40;3.03;;;7.40;58.00;;;;;;4966739;28;20401;-78
2023/01/13 06:43:14;;;;;;;3.90;3.47;;;7.30;57.80;;;;;;4965489;28;20038;-78
2023/01/13 06:45:46;;;;;;;4.15;3.47;;;7.40;57.70;;;;;;4945251;28;20057;-75
2023/01/13 06:48:13;;;;;;;6.57;3.50;;;7.40;57.70;;;;;;4977335;28;20034;-75
2023/01/13 06:50:41;;;;;;;5.80;3.30;;;7.40;57.60;;;;;;4976946;28;20045;-75
2023/01/13 06:53:07;;;;;;;3.75;2.83;;;7.40;57.60;;;;;;4979589;28;20093;-76
2023/01/13 06:55:33;;;;;;;3.53;3.10;;;7.30;57.50;;;;;;4974857;28;20105;-75
2023/01/13 06:57:59;;;;;;;4.32;3.28;;;7.40;57.50;;;;;;4975144;28;20039;-75
2023/01/13 07:00:25;;;;;;;4.10;3.20;;;7.40;57.50;;;;;;4966103;28;20026;-76
2023/01/13 07:02:52;;;;;;;3.60;3.00;;;7.30;57.40;;;;;;4976008;28;20062;-75
2023/01/13 07:05:19;;;;;;;4.32;3.38;;;7.30;57.40;;;;;;4978489;28;20040;-75
2023/01/13 07:07:45;;;;;;;3.83;2.90;;;7.30;57.40;;;;;;4964706;28;20030;-75
2023/01/13 07:10:20;;;;;;;4.22;2.90;;;7.30;57.40;;;;;;4974338;28;20034;-76
2023/01/13 07:15:33;;;;;;;3.50;2.83;;;7.30;57.30;;;;;;4977754;28;20399;-77
2023/01/13 07:17:59;;;;;;;3.35;2.17;;;7.30;57.40;;;;;;4976617;28;20184;-76
2023/01/13 07:20:25;;;;;;;4.47;2.70;;;7.30;57.40;;;;;;4975881;28;20125;-76
2023/01/13 07:22:55;;;;;;;4.78;2.58;;;7.30;57.40;;;;;;4974870;28;20041;-76
2023/01/13 07:25:21;;;;;;;3.35;2.75;;;7.30;57.40;;;;;;4976176;28;20035;-76
2023/01/13 07:27:47;;;;;;;3.47;2.63;;;7.30;57.40;;;;;;4975334;28;20096;-75
2023/01/13 07:30:13;;;;;;;3.55;2.90;;;7.30;57.40;;;;;;4976061;28;20039;-75
2023/01/13 07:32:39;;;;;;;3.60;2.67;;;7.30;57.40;;;;;;4979126;28;20039;-76
2023/01/13 07:35:05;;;;;;;2.97;2.50;;;7.30;57.40;;;;;;4973403;28;20039;-76
2023/01/13 07:37:38;;;;;;;3.05;2.47;;;7.30;57.40;;;;;;4974845;28;20035;-75
2023/01/13 07:40:04;;;;;;;4.35;2.75;;;7.30;57.40;;;;;;4963266;28;20347;-76
2023/01/13 07:45:15;;;;;;;2.58;2.38;;;7.30;57.30;;;;;;4975610;28;20057;-75
2023/01/13 07:47:41;;;;;;;4.18;2.47;;;7.30;57.30;;;;;;4975642;28;20486;-76
2023/01/13 07:50:08;;;;;;;3.78;2.13;;;7.30;57.30;;;;;;4977049;28;20483;-75
2023/01/13 07:52:34;;;;;;;4.78;2.53;;;7.30;57.30;;;;;;4957878;28;20754;-76
2023/01/13 07:55:00;;;;;;;3.22;2.40;;;7.30;57.30;;;;;;4975127;28;20381;-75
2023/01/13 07:57:26;;;;;;;3.08;2.50;;;7.30;57.20;;;;;;4957802;28;20096;-75
2023/01/13 07:59:51;;;;;;;3.58;2.60;;;7.30;57.30;;;;;;4961532;28;20031;-76
2023/01/13 08:02:17;;;;;;;4.30;2.60;;;7.30;57.20;;;;;;4976591;28;20045;-76
2023/01/13 08:04:43;;;;;;;3.10;2.38;;;7.30;57.10;;;;;;4974492;28;20034;-76
2023/01/13 08:07:09;;;;;;;3.80;2.40;;;7.30;57.60;;;;;;4977052;28;20066;-75
2023/01/13 08:09:35;;;;;;;3.22;2.53;;;7.30;57.20;;;;;;4977828;28;20034;-76
2023/01/13 08:14:45;;;;;;;3.63;2.67;;;7.30;57.10;;;;;;4976411;28;20072;-76
2023/01/13 08:17:11;;;;;;;3.67;2.25;;;7.30;57.00;;;;;;4959547;28;20030;-75
2023/01/13 08:19:37;;;;;;;3.88;2.35;;;7.30;57.10;;;;;;4975549;28;20074;-76
2023/01/13 08:22:03;;;;;;;3.38;2.58;;;7.30;57.10;;;;;;4977956;28;20061;-75
2023/01/13 08:24:29;;;;;;;2.42;2.20;;;7.30;57.20;;;;;;4981588;28;20457;-75
2023/01/13 08:26:55;;;;;;;3.10;2.38;;;7.30;57.10;;;;;;4979652;28;20058;-75
2023/01/13 08:29:21;;;;;;;4.20;2.33;;;7.30;57.10;;;;;;4977703;28;20039;-75
2023/01/13 08:31:47;;;;;;;2.60;2.40;;;7.30;57.10;;;;;;4978199;28;20065;-75
2023/01/13 08:34:13;;;;;;;3.20;2.40;;;7.30;57.10;;;;;;4974605;28;20038;-75
2023/01/13 08:36:39;;;;;;;3.85;2.30;;;7.30;57.00;;;;;;4969051;28;20042;-76
2023/01/13 08:39:05;;;;;;;2.95;2.63;;;7.30;57.00;;;;;;4979622;28;20102;-76
2023/01/13 08:44:15;;;;;;;3.22;2.75;;;7.20;56.90;;;;;;4979346;28;20526;-75
2023/01/13 08:46:41;;;;;;;3.03;2.25;;;7.30;57.00;;;;;;4978787;28;20098;-75
2023/01/13 08:49:07;;;;;;;3.30;2.58;;;7.30;57.00;;;;;;4977642;28;20030;-76
2023/01/13 08:51:33;;;;;;;3.83;2.40;;;7.20;56.90;;;;;;4967745;28;20057;-76
2023/01/13 08:53:59;;;;;;;3.38;2.63;;;7.30;57.00;;;;;;4978891;28;20058;-76
2023/01/13 08:56:25;;;;;;;4.53;2.40;;;7.30;57.00;;;;;;4979455;28;20039;-76
2023/01/13 08:58:51;;;;;;;3.90;2.78;;;7.30;56.90;;;;;;4976773;28;20042;-75
2023/01/13 09:01:21;;;;;;;4.32;2.85;;;7.20;56.90;;;;;;4982069;28;20127;-75
2023/01/13 09:03:47;;;;;;;3.72;2.28;;;7.30;56.90;;;;;;4980864;28;20043;-75
2023/01/13 09:06:13;;;;;;;3.65;2.40;;;7.20;56.80;;;;;;4980211;28;20022;-76
2023/01/13 09:08:39;;;;;;;4.97;2.50;;;7.20;56.80;;;;;;4963016;28;20520;-76
2023/01/13 09:13:10;;;;;;;4.38;2.72;;;7.30;56.90;;;;;;4979858;28;20121;-76
2023/01/13 09:13:51;;;;;;;2.97;2.28;;;7.20;56.80;;;;;;4961231;28;20049;-76
2023/01/13 09:16:17;;;;;;;3.97;2.25;;;7.30;56.80;;;;;;4963579;28;20038;-76
2023/01/13 09:18:43;;;;;;;4.00;2.83;;;7.20;56.80;;;;;;4981610;28;20512;-75
2023/01/13 09:21:13;;;;;;;3.03;2.33;;;7.20;56.80;;;;;;4980855;28;20030;-75
2023/01/13 09:23:38;;;;;;;3.45;2.30;;;7.30;56.80;;;;;;4979678;28;20082;-76
2023/01/13 09:26:04;;;;;;;3.20;2.20;;;7.30;56.80;;;;;;4979275;28;20524;-77
2023/01/13 09:28:31;;;;;;;3.17;2.17;;;7.30;56.80;;;;;;4978930;28;20042;-77
2023/01/13 09:31:00;;;;;;;3.10;2.38;;;7.30;56.80;;;;;;4982354;28;20038;-77
2023/01/13 09:36:10;;;;;;;3.80;2.58;;;7.30;56.90;;;;;;4978478;28;20506;-76
2023/01/13 09:38:36;;;;;;;3.25;2.47;;;7.30;56.80;;;;;;4979519;28;20205;-77
2023/01/13 09:43:52;;;;;;;3.88;2.60;;;7.30;56.80;;;;;;4979575;28;20027;-77
2023/01/13 09:43:55;;;;;;;2.97;2.50;;;7.30;56.80;;;;;;4948378;28;20035;-77
2023/01/13 09:46:43;;;;;;;4.45;2.85;;;7.30;56.70;;;;;;4979712;28;20042;-77
2023/01/13 09:49:33;;;;;;;4.07;2.53;;;7.20;56.70;;;;;;4969423;28;20041;-77
2023/01/13 09:52:21;;;;;;;4.07;2.50;;;7.20;56.60;;;;;;4973784;28;20096;-77
2023/01/13 09:54:54;;;;;;;3.75;2.67;;;7.20;56.60;;;;;;4981121;28;20038;-76
2023/01/13 09:57:20;;;;;;;3.72;2.70;;;7.30;56.70;;;;;;4980599;28;20035;-75
2023/01/13 09:59:47;;;;;;;3.60;2.95;;;7.20;56.60;;;;;;4979455;28;20041;-76
2023/01/13 10:02:28;;;;;;;3.80;2.53;;;7.20;56.50;;;;;;4980106;28;20038;-76
2023/01/13 10:05:21;;;;;;;3.63;2.60;;;7.20;56.60;;;;;;4979843;28;20035;-75
2023/01/13 10:07:56;;;;;;;4.30;2.78;;;7.20;56.70;;;;;;4980228;28;20041;-75
2023/01/13 10:10:38;;;;;;;5.00;2.47;;;7.20;56.60;;;;;;4968305;28;20630;-76
2023/01/13 10:13:21;;;;;;;3.42;2.30;;;7.20;56.70;;;;;;4970320;28;20069;-76
2023/01/13 10:16:21;;;;;;;2.65;2.28;;;7.20;56.70;;;;;;4980228;28;20038;-76
2023/01/13 10:19:10;;;;;;;4.13;2.53;;;7.20;56.60;;;;;;4967367;28;20156;-75
2023/01/13 10:21:49;;;;;;;2.88;2.30;;;7.20;56.60;;;;;;4978570;28;20134;-76
2023/01/13 10:24:18;;;;;;;2.85;2.30;;;7.20;56.70;;;;;;4978855;28;20061;-76
2023/01/13 10:26:53;;;;;;;2.90;2.47;;;7.20;56.70;;;;;;4969096;28;20517;-76
2023/01/13 10:29:24;;;;;;;2.97;2.40;;;7.20;56.70;;;;;;4968080;28;20417;-76
2023/01/13 10:31:54;;;;;;;2.58;2.28;;;7.20;56.70;;;;;;4978033;28;20041;-75
2023/01/13 10:34:22;;;;;;;3.30;2.35;;;7.20;56.60;;;;;;4979393;28;20121;-76
2023/01/13 10:37:18;;;;;;;3.47;2.50;;;7.20;56.70;;;;;;4978858;28;20034;-76
2023/01/13 10:39:47;;;;;;;3.53;2.33;;;7.20;56.70;;;;;;4975472;28;20379;-76
2023/01/13 10:42:20;;;;;;;3.70;2.45;;;7.20;56.70;;;;;;4959128;28;20034;-75
2023/01/13 10:44:52;;;;;;;4.85;2.67;;;7.20;56.60;;;;;;4962662;28;20529;-76
2023/01/13 10:47:21;;;;;;;3.28;2.58;;;7.20;56.60;;;;;;4977587;28;20038;-77
2023/01/13 10:50:05;;;;;;;3.50;2.55;;;7.20;56.60;;;;;;4978906;28;20559;-75
2023/01/13 10:52:38;;;;;;;3.67;2.85;;;7.20;56.70;;;;;;4974921;28;20492;-75
2023/01/13 10:55:25;;;;;;;4.25;2.60;;;7.20;56.70;;;;;;4978822;28;20501;-75
2023/01/13 10:57:51;;;;;;;3.40;2.22;;;7.20;56.80;;;;;;4977475;28;20242;-75
2023/01/13 11:00:29;;;;;;;3.30;2.67;;;7.20;56.90;;;;;;4977546;28;20031;-74
2023/01/13 11:03:22;;;;;;;3.80;2.53;;;7.20;56.90;;;;;;4975422;28;20042;-75
2023/01/13 11:05:52;;;;;;;3.55;2.70;;;7.20;57.00;;;;;;4981342;28;20046;-75
2023/01/13 11:08:21;;;;;;;8.63;3.33;;;7.10;57.10;;;;;;4990505;28;20034;-76
2023/01/13 11:10:50;;;;;;;4.28;2.53;;;7.20;57.10;;;;;;4972645;28;20041;-75
2023/01/13 11:13:19;;;;;;;3.03;2.53;;;7.20;57.20;;;;;;4986378;28;20038;-76
2023/01/13 11:16:06;;;;;;;3.80;2.50;;;7.20;57.30;;;;;;4968855;28;20039;-75
2023/01/13 11:18:50;;;;;;;2.78;2.20;;;7.10;57.30;;;;;;4971622;28;20046;-74
2023/01/13 11:21:45;;;;;;;6.53;2.80;;;7.20;57.40;;;;;;4980589;28;20154;-74
2023/01/13 11:24:39;;;;;;;4.22;2.55;;;7.20;57.50;;;;;;4981662;28;20038;-73
2023/01/13 11:27:31;;;;;;;3.15;2.40;;;7.10;57.50;;;;;;4970441;28;20061;-74
2023/01/13 11:30:22;;;;;;;5.03;2.78;;;7.10;57.60;;;;;;4968775;28;20050;-74
2023/01/13 11:33:03;;;;;;;4.15;2.78;;;7.10;57.70;;;;;;4986593;28;20500;-74
2023/01/13 11:35:34;;;;;;;4.75;2.92;;;7.10;57.80;;;;;;4974858;28;20141;-76
2023/01/13 11:38:32;;;;;;;3.80;2.60;;;7.10;57.80;;;;;;4983859;28;20034;-76
2023/01/13 11:41:42;;;;;;;3.53;2.50;;;7.10;58.00;;;;;;4982500;28;20065;-76
2023/01/13 11:44:24;;;;;;;4.82;2.50;;;7.10;58.10;;;;;;4962626;28;20579;-77
2023/01/13 11:46:51;;;;;;;3.80;2.80;;;7.10;58.10;;;;;;4975429;28;20035;-77
2023/01/13 11:49:27;;;;;;;3.60;2.60;;;7.10;58.20;;;;;;4974808;28;20066;-77
2023/01/13 11:52:03;;;;;;;4.68;2.70;;;7.10;58.30;;;;;;4975460;28;20034;-76
2023/01/13 11:54:52;;;;;;;5.57;2.50;;;7.10;58.30;;;;;;4979186;28;20037;-76
2023/01/13 11:57:35;;;;;;;2.90;2.22;;;7.10;58.30;;;;;;4975659;28;20516;-77
2023/01/13 12:00:27;;;;;;;4.38;2.63;;;7.10;58.20;;;;;;4979777;28;20035;-80
2023/01/13 12:02:57;;;;;;;3.55;2.55;;;7.10;58.20;;;;;;4972453;28;20089;-78
2023/01/13 12:05:28;;;;;;;3.10;2.72;;;7.10;58.30;;;;;;4989368;28;20041;-76
2023/01/13 12:07:54;;;;;;;4.25;2.38;;;7.10;58.30;;;;;;4977154;28;20596;-76
2023/01/13 12:10:24;;;;;;;4.40;2.90;;;7.10;58.30;;;;;;4986389;28;20042;-76
2023/01/13 12:13:13;;;;;;;3.42;2.70;;;7.10;58.40;;;;;;4981603;28;20035;-76
2023/01/13 12:16:00;;;;;;;3.30;2.63;;;7.10;58.40;;;;;;4983835;28;20586;-76
2023/01/13 12:19:06;;;;;;;3.53;2.72;;;7.10;58.30;;;;;;4984427;28;20062;-77
2023/01/13 12:21:57;;;;;;;7.05;3.05;;;7.10;58.40;;;;;;4966404;28;20034;-77
2023/01/13 12:24:31;;;;;;;5.80;2.60;;;7.10;58.40;;;;;;4985293;28;20584;-77
2023/01/13 12:27:04;;;;;;;5.50;3.00;;;7.10;58.40;;;;;;4973613;28;20157;-77
2023/01/13 12:29:36;;;;;;;4.07;2.67;;;7.10;58.50;;;;;;4980853;28;20076;-75
2023/01/13 12:32:06;;;;;;;3.78;2.50;;;7.10;58.60;;;;;;4957815;28;20394;-75
2023/01/13 12:35:04;;;;;;;5.28;3.17;;;7.10;58.50;;;;;;4977059;28;20147;-77
2023/01/13 12:37:51;;;;;;;2.97;2.63;;;7.10;58.50;;;;;;4907678;29;20039;-83
2023/01/13 12:40:17;;;;;;;5.72;2.83;;;7.10;58.50;;;;;;4921998;29;20058;-77
2023/01/13 12:45:30;;;;;;;4.30;3.13;;;7.10;58.60;;;;;;4921935;29;20050;-76
2023/01/13 12:47:57;;;;;;;5.85;3.00;;;7.10;58.50;;;;;;4923125;29;20078;-78
2023/01/13 12:50:25;;;;;;;5.97;3.17;;;7.10;58.60;;;;;;4922010;29;20400;-77
2023/01/13 12:52:56;;;;;;;6.35;3.28;;;7.10;58.70;;;;;;4920595;29;20047;-75
2023/01/13 12:55:35;;;;;;;5.97;3.13;;;7.10;58.80;;;;;;4923985;29;20036;-74
2023/01/13 12:58:09;;;;;;;5.50;3.42;;;7.10;59.20;;;;;;4924192;29;20550;-75
2023/01/13 13:00:38;;;;;;;8.07;2.95;;;7.10;59.40;;;;;;4921411;29;20164;-74
2023/01/13 13:03:10;;;;;;;5.85;2.90;;;7.10;59.40;;;;;;4921989;29;20027;-74
2023/01/13 13:05:47;;;;;;;5.32;3.00;;;7.10;59.40;;;;;;4920143;29;20040;-74
2023/01/13 13:08:42;;;;;;;5.25;3.50;;;7.10;59.40;;;;;;4922695;29;20070;-73
2023/01/13 13:14:09;;;;;;;4.85;3.55;;;7.10;59.40;;;;;;4935287;28;20167;-74
2023/01/13 13:16:47;;;;;;;5.70;3.25;;;7.10;59.50;;;;;;4977798;28;20035;-73
2023/01/13 13:19:20;;;;;;;6.65;3.60;;;7.10;59.60;;;;;;4978040;28;20089;-73
2023/01/13 13:22:06;;;;;;;6.70;3.72;;;7.10;59.50;;;;;;4961819;28;20480;-74
2023/01/13 13:24:32;;;;;;;7.13;3.35;;;7.10;59.50;;;;;;4978100;28;20058;-75
2023/01/13 13:27:18;;;;;;;9.75;3.47;;;7.10;59.40;;;;;;4978018;28;20047;-76
2023/01/13 13:29:53;;;;;;;;;;;7.10;59.50;;;;;;4977311;28;20050;-76
2023/01/13 13:32:58;;;;;;;6.32;3.80;;;7.10;59.60;;;;;;4974177;28;19926;-76
2023/01/13 13:35:42;;;;;;;4.22;3.15;;;7.10;59.50;;;;;;4959745;28;20405;-76
2023/01/13 13:47:09;;;;;;;10.98;3.95;;;7.00;59.70;;;;;;4974002;28;20397;-75
2023/01/13 13:49:39;;;;;;;4.90;3.63;;;7.10;59.80;;;;;;4957548;28;20492;-73
2023/01/13 13:52:32;;;;;;;5.43;3.55;;;7.00;59.80;;;;;;4978647;28;20038;-73
2023/01/13 13:55:13;;;;;;;6.25;3.80;;;7.00;60.00;;;;;;4977608;28;20049;-74
2023/01/13 13:57:41;;;;;;;4.90;3.58;;;7.00;60.10;;;;;;4974298;28;20524;-74
2023/01/13 14:00:20;;;;;;;5.68;3.10;;;7.00;60.20;;;;;;4974090;28;20034;-73
2023/01/13 14:03:00;;;;;;;5.75;3.47;;;7.00;60.50;;;;;;4974262;28;20048;-75
2023/01/13 14:05:29;;;;;;;4.85;3.78;;;7.00;60.70;;;;;;4966225;28;20043;-76
2023/01/13 14:08:03;;;;;;;6.13;3.60;;;7.00;61.10;;;;;;4976301;28;20038;-77
2023/01/13 14:10:39;;;;;;;6.00;3.50;;;7.00;61.10;;;;;;4978124;28;20141;-76
2023/01/13 14:13:17;;;;;;;4.13;3.47;;;7.00;61.10;;;;;;4975768;28;20501;-76
2023/01/13 14:15:45;;;;;;;6.40;3.85;;;7.00;61.00;;;;;;4977633;28;20042;-76
2023/01/13 14:18:18;;;;;;;5.63;3.60;;;7.00;60.90;;;;;;4974857;28;20497;-76
2023/01/13 14:20:52;;;;;;;5.13;3.42;;;7.00;60.80;;;;;;4974266;28;20042;-77
2023/01/13 14:23:20;;;;;;;5.57;3.92;;;7.00;60.80;;;;;;4978875;28;20038;-76